createdAt,value
2022-11-13T00:02:16.193Z,1.70
2022-11-13T00:05:21.443Z,1.60
2022-11-13T00:08:27.351Z,1.90
2022-11-13T00:11:32.940Z,1.73
2022-11-13T00:14:38.508Z,2.00
2022-11-13T00:17:44.188Z,1.70
2022-11-13T00:20:50.005Z,2.00
2022-11-13T00:23:56.145Z,1.70
2022-11-13T00:27:01.912Z,1.60
2022-11-13T00:30:07.920Z,1.50
2022-11-13T00:33:18.903Z,1.83
2022-11-13T00:36:32.214Z,1.70
2022-11-13T00:39:37.692Z,1.63
2022-11-13T00:42:43.400Z,1.60
2022-11-13T00:45:48.936Z,1.70
2022-11-13T00:48:54.407Z,1.73
2022-11-13T00:52:00.263Z,1.97
2022-11-13T00:55:06.444Z,3.07
2022-11-13T00:58:12.636Z,1.63
2022-11-13T01:01:19.923Z,1.70
2022-11-13T01:04:28.162Z,1.50
2022-11-13T01:07:36.526Z,1.80
2022-11-13T01:10:52.957Z,1.77
2022-11-13T01:13:59.413Z,1.40
2022-11-13T01:17:05.126Z,1.50
2022-11-13T01:20:11.376Z,1.50
2022-11-13T01:23:17.120Z,1.50
2022-11-13T01:26:29.063Z,1.60
2022-11-13T01:29:34.600Z,1.70
2022-11-13T01:32:40.182Z,1.70
2022-11-13T01:35:45.880Z,1.80
2022-11-13T01:38:52.007Z,1.60
2022-11-13T01:41:57.650Z,1.43
2022-11-13T01:45:03.467Z,1.70
2022-11-13T01:48:12.138Z,1.77
2022-11-13T01:51:26.102Z,1.50
2022-11-13T01:54:35.306Z,1.40
2022-11-13T01:57:41.366Z,1.50
2022-11-13T02:00:47.274Z,2.23
2022-11-13T02:03:53.014Z,1.70
2022-11-13T02:07:02.276Z,1.50
2022-11-13T02:10:08.323Z,1.60
2022-11-13T02:13:15.693Z,1.70
2022-11-13T02:16:23.111Z,1.80
2022-11-13T02:19:35.163Z,1.70
2022-11-13T02:23:02.012Z,2.00
2022-11-13T02:26:09.095Z,1.70
2022-11-13T02:29:14.710Z,1.53
2022-11-13T02:32:20.187Z,1.50
2022-11-13T02:35:31.526Z,1.50
2022-11-13T02:38:40.291Z,1.53
2022-11-13T02:41:45.934Z,1.50
2022-11-13T02:44:51.579Z,1.57
2022-11-13T02:48:00.020Z,1.40
2022-11-13T02:51:05.705Z,2.07
2022-11-13T02:54:16.482Z,2.00
2022-11-13T02:57:22.684Z,1.57
2022-11-13T03:00:28.395Z,1.57
2022-11-13T03:03:56.690Z,1.50
2022-11-13T03:06:59.622Z,1.80
2022-11-13T03:10:05.880Z,1.77
2022-11-13T03:13:11.796Z,1.63
2022-11-13T03:16:17.486Z,1.70
2022-11-13T03:19:23.088Z,1.43
2022-11-13T03:22:28.483Z,1.50
2022-11-13T03:25:34.874Z,1.70
2022-11-13T03:28:40.601Z,1.40
2022-11-13T03:31:45.972Z,1.27
2022-11-13T03:34:51.345Z,1.27
2022-11-13T03:37:56.769Z,1.30
2022-11-13T03:41:02.473Z,1.40
2022-11-13T03:44:08.149Z,1.67
2022-11-13T03:47:14.697Z,1.47
2022-11-13T03:50:20.034Z,1.30
2022-11-13T03:53:25.887Z,1.30
2022-11-13T03:56:31.330Z,1.50
2022-11-13T03:59:36.860Z,1.50
2022-11-13T04:02:42.611Z,1.40
2022-11-13T04:05:49.775Z,2.30
2022-11-13T04:08:55.271Z,1.40
2022-11-13T04:12:00.771Z,1.40
2022-11-13T04:15:07.017Z,1.10
2022-11-13T04:18:12.824Z,1.20
2022-11-13T04:21:18.415Z,1.17
2022-11-13T04:24:24.183Z,1.30
2022-11-13T04:27:29.957Z,1.17
2022-11-13T04:30:35.602Z,2.90
2022-11-13T04:33:41.470Z,1.20
2022-11-13T04:36:46.956Z,0.97
2022-11-13T04:39:52.497Z,2.40
2022-11-13T04:42:58.270Z,1.17
2022-11-13T04:46:03.749Z,1.20
2022-11-13T04:49:09.366Z,1.20
2022-11-13T04:52:15.123Z,1.40
2022-11-13T04:55:20.839Z,1.33
2022-11-13T04:58:26.380Z,1.40
2022-11-13T05:01:32.625Z,1.33
2022-11-13T05:04:38.219Z,1.20
2022-11-13T05:07:43.762Z,0.90
2022-11-13T05:10:49.109Z,0.90
2022-11-13T05:13:57.315Z,1.10
2022-11-13T05:17:08.877Z,1.10
2022-11-13T05:20:14.584Z,1.00
2022-11-13T05:23:20.191Z,1.10
2022-11-13T05:26:29.081Z,1.17
2022-11-13T05:29:34.479Z,1.00
2022-11-13T05:32:39.666Z,1.10
2022-11-13T05:35:45.041Z,0.97
2022-11-13T05:38:50.771Z,1.07
2022-11-13T05:41:56.230Z,0.90
2022-11-13T05:45:02.053Z,1.00
2022-11-13T05:48:07.582Z,0.93
2022-11-13T05:51:16.464Z,0.93
2022-11-13T05:54:21.947Z,1.00
2022-11-13T05:57:27.588Z,1.27
2022-11-13T06:00:32.901Z,1.00
2022-11-13T06:03:38.666Z,0.97
2022-11-13T06:06:44.287Z,0.80
2022-11-13T06:09:49.763Z,0.70
2022-11-13T06:12:55.220Z,0.63
2022-11-13T06:16:05.267Z,0.80
2022-11-13T06:19:11.556Z,0.60
2022-11-13T06:22:16.849Z,0.80
2022-11-13T06:25:22.463Z,1.07
2022-11-13T06:28:28.090Z,1.00
2022-11-13T06:31:35.739Z,1.10
2022-11-13T06:34:41.693Z,1.50
2022-11-13T06:37:47.812Z,1.17
2022-11-13T06:40:53.517Z,0.90
2022-11-13T06:44:02.999Z,1.40
2022-11-13T06:47:09.518Z,1.00
2022-11-13T06:50:15.153Z,1.00
2022-11-13T06:53:20.806Z,0.93
2022-11-13T06:56:26.532Z,0.90
2022-11-13T06:59:31.934Z,0.90
2022-11-13T07:02:37.692Z,1.00
2022-11-13T07:05:44.298Z,1.10
2022-11-13T07:08:49.961Z,1.10
2022-11-13T07:11:55.637Z,1.03
2022-11-13T07:15:00.999Z,1.07
2022-11-13T07:18:07.249Z,0.90
2022-11-13T07:21:13.104Z,0.93
2022-11-13T07:24:18.537Z,1.03
2022-11-13T07:27:24.125Z,1.03
2022-11-13T07:30:29.550Z,1.10
2022-11-13T07:33:35.196Z,1.40
2022-11-13T07:36:40.886Z,1.47
2022-11-13T07:39:46.319Z,1.43
2022-11-13T07:43:02.198Z,1.40
2022-11-13T07:46:07.657Z,2.00
2022-11-13T07:49:13.257Z,2.03
2022-11-13T07:52:19.128Z,1.70
2022-11-13T07:55:24.961Z,2.00
2022-11-13T07:58:31.349Z,2.00
2022-11-13T08:01:38.372Z,2.10
2022-11-13T08:04:44.001Z,2.00
2022-11-13T08:07:51.516Z,2.07
2022-11-13T08:10:57.432Z,2.87
2022-11-13T08:14:02.843Z,2.37
2022-11-13T08:17:08.182Z,2.47
2022-11-13T08:20:13.929Z,2.10
2022-11-13T08:23:19.904Z,2.27
2022-11-13T08:26:25.622Z,3.20
2022-11-13T08:29:31.003Z,2.50
2022-11-13T08:32:36.641Z,2.47
2022-11-13T08:35:42.069Z,2.03
2022-11-13T08:38:48.346Z,1.90
2022-11-13T08:41:54.110Z,2.40
2022-11-13T08:44:59.802Z,2.07
2022-11-13T08:48:05.882Z,2.30
2022-11-13T08:51:11.365Z,2.33
2022-11-13T08:54:16.921Z,3.17
2022-11-13T08:57:22.319Z,3.47
2022-11-13T09:00:29.513Z,3.20
2022-11-13T09:03:36.765Z,2.80
2022-11-13T09:06:42.552Z,3.03
2022-11-13T09:09:47.989Z,2.47
2022-11-13T09:13:02.348Z,2.63
2022-11-13T09:16:08.156Z,3.17
2022-11-13T09:19:13.768Z,2.73
2022-11-13T09:22:19.441Z,3.30
2022-11-13T09:25:25.394Z,3.30
2022-11-13T09:28:31.488Z,2.80
2022-11-13T09:31:39.370Z,2.93
2022-11-13T09:34:46.095Z,2.70
2022-11-13T09:37:52.565Z,3.33
2022-11-13T09:41:14.754Z,3.50
2022-11-13T09:44:43.383Z,5.27
2022-11-13T09:47:52.539Z,6.50
2022-11-13T09:51:01.898Z,6.33
2022-11-13T09:54:12.118Z,5.90
2022-11-13T09:57:28.706Z,4.70
2022-11-13T10:00:34.961Z,4.47
2022-11-13T10:04:01.371Z,5.23
2022-11-13T10:07:36.368Z,4.17
2022-11-13T10:10:55.165Z,3.33
2022-11-13T10:14:13.989Z,3.83
2022-11-13T10:17:39.058Z,4.20
2022-11-13T10:20:49.223Z,3.50
2022-11-13T10:23:57.353Z,4.20
2022-11-13T10:27:09.800Z,4.60
2022-11-13T10:30:18.058Z,3.77
2022-11-13T10:33:25.497Z,3.40
2022-11-13T10:36:40.334Z,3.33
2022-11-13T10:39:45.876Z,3.30
2022-11-13T10:42:51.363Z,3.63
2022-11-13T10:46:02.321Z,3.10
2022-11-13T10:49:20.170Z,3.20
2022-11-13T10:52:28.138Z,2.80
2022-11-13T10:55:40.963Z,2.87
2022-11-13T10:59:19.677Z,3.13
2022-11-13T11:02:27.027Z,3.07
2022-11-13T11:05:32.486Z,3.17
2022-11-13T11:08:38.252Z,3.10
2022-11-13T11:12:19.025Z,4.07
2022-11-13T11:15:38.693Z,3.20
2022-11-13T11:18:51.923Z,2.83
2022-11-13T11:22:24.433Z,3.23
2022-11-13T11:25:39.078Z,2.60
2022-11-13T11:29:06.137Z,3.07
2022-11-13T11:32:38.710Z,3.33
2022-11-13T11:35:50.366Z,2.97
2022-11-13T11:39:04.934Z,2.93
2022-11-13T11:42:28.948Z,3.20
2022-11-13T11:45:42.390Z,3.10
2022-11-13T11:48:48.360Z,2.53
2022-11-13T11:52:17.492Z,3.03
2022-11-13T11:55:49.463Z,3.40
2022-11-13T11:59:04.411Z,4.00
2022-11-13T12:02:28.282Z,4.13
2022-11-13T12:05:49.940Z,3.33
2022-11-13T12:09:18.522Z,3.10
2022-11-13T12:12:45.091Z,3.13
2022-11-13T12:16:12.373Z,2.67
2022-11-13T12:19:33.607Z,4.27
2022-11-13T12:23:03.816Z,3.70
2022-11-13T12:26:43.364Z,3.23
2022-11-13T12:30:18.905Z,3.20
2022-11-13T12:33:37.248Z,3.03
2022-11-13T12:36:43.676Z,3.07
2022-11-13T12:40:00.457Z,2.80
2022-11-13T12:43:24.551Z,3.40
2022-11-13T12:46:35.780Z,3.27
2022-11-13T12:49:41.465Z,2.97
2022-11-13T12:53:05.658Z,3.10
2022-11-13T12:56:20.121Z,3.13
2022-11-13T12:59:41.322Z,2.90
2022-11-13T13:03:15.910Z,3.00
2022-11-13T13:06:30.491Z,3.20
2022-11-13T13:09:57.827Z,3.27
2022-11-13T13:13:35.573Z,3.40
2022-11-13T13:16:40.933Z,3.17
2022-11-13T13:19:57.517Z,3.07
2022-11-13T13:23:08.257Z,3.37
2022-11-13T13:26:25.206Z,3.43
2022-11-13T13:29:33.361Z,3.30
2022-11-13T13:32:57.765Z,3.30
2022-11-13T13:36:28.369Z,3.53
2022-11-13T13:39:46.063Z,3.30
2022-11-13T13:43:17.364Z,3.77
2022-11-13T13:46:26.333Z,3.40
2022-11-13T13:49:32.777Z,4.20
2022-11-13T13:52:39.053Z,3.70
2022-11-13T13:55:49.082Z,3.50
2022-11-13T13:58:54.775Z,3.97
2022-11-13T14:02:02.865Z,4.10
2022-11-13T14:05:24.095Z,4.10
2022-11-13T14:08:30.301Z,3.93
2022-11-13T14:11:36.256Z,3.60
2022-11-13T14:14:41.928Z,3.77
2022-11-13T14:17:47.764Z,3.87
2022-11-13T14:20:57.285Z,3.17
2022-11-13T14:24:03.595Z,3.60
2022-11-13T14:27:15.558Z,3.93
2022-11-13T14:30:27.272Z,3.30
2022-11-13T14:33:47.897Z,4.27
2022-11-13T14:36:53.357Z,3.57
2022-11-13T14:40:04.946Z,4.10
2022-11-13T14:43:19.609Z,3.67
2022-11-13T14:46:31.203Z,3.53
2022-11-13T14:49:37.570Z,3.53
2022-11-13T14:52:43.081Z,4.00
2022-11-13T14:55:53.981Z,5.07
2022-11-13T14:59:18.488Z,4.53
2022-11-13T15:02:25.678Z,4.00
2022-11-13T15:05:31.390Z,3.93
2022-11-13T15:08:37.086Z,4.13
2022-11-13T15:11:43.201Z,4.10
2022-11-13T15:14:48.856Z,4.20
2022-11-13T15:17:55.103Z,4.47
2022-11-13T15:21:01.144Z,4.50
2022-11-13T15:24:06.934Z,4.40
2022-11-13T15:27:16.625Z,4.50
2022-11-13T15:30:22.171Z,4.47
2022-11-13T15:33:28.161Z,4.10
2022-11-13T15:36:34.019Z,4.50
2022-11-13T15:39:39.695Z,5.13
2022-11-13T15:42:45.748Z,4.57
2022-11-13T15:45:51.490Z,4.80
2022-11-13T15:48:57.138Z,5.00
2022-11-13T15:52:02.942Z,5.03
2022-11-13T15:55:19.609Z,6.30
2022-11-13T15:58:24.853Z,7.10
2022-11-13T16:01:31.244Z,6.30
2022-11-13T16:04:55.052Z,5.93
2022-11-13T16:08:01.436Z,5.97
2022-11-13T16:11:07.051Z,6.00
2022-11-13T16:14:12.553Z,5.80
2022-11-13T16:17:22.689Z,7.60
2022-11-13T16:20:28.236Z,9.07
2022-11-13T16:23:33.745Z,9.53
2022-11-13T16:26:48.583Z,9.37
2022-11-13T16:29:54.240Z,8.90
2022-11-13T16:33:00.665Z,8.10
2022-11-13T16:36:14.744Z,8.10
2022-11-13T16:39:20.863Z,7.60
2022-11-13T16:42:30.833Z,7.33
2022-11-13T16:45:38.044Z,7.50
2022-11-13T16:48:43.862Z,8.10
2022-11-13T16:51:51.031Z,7.37
2022-11-13T16:54:56.747Z,8.37
2022-11-13T16:58:04.138Z,8.60
2022-11-13T17:01:15.496Z,9.23
2022-11-13T17:04:21.855Z,11.03
2022-11-13T17:07:27.349Z,37.83
2022-11-13T17:10:33.592Z,16.30
2022-11-13T17:13:39.387Z,27.67
2022-11-13T17:16:45.272Z,12.97
2022-11-13T17:19:51.139Z,12.03
2022-11-13T17:22:56.908Z,13.53
2022-11-13T17:26:04.341Z,11.30
2022-11-13T17:29:10.217Z,11.40
2022-11-13T17:32:15.917Z,10.20
2022-11-13T17:35:21.579Z,9.27
2022-11-13T17:38:27.705Z,10.07
2022-11-13T17:41:34.092Z,9.43
2022-11-13T17:44:39.602Z,10.13
2022-11-13T17:47:45.472Z,13.33
2022-11-13T17:50:58.580Z,10.93
2022-11-13T17:54:04.115Z,8.60
2022-11-13T17:57:10.316Z,8.17
2022-11-13T18:00:17.124Z,8.13
2022-11-13T18:03:22.902Z,8.43
2022-11-13T18:06:28.762Z,8.97
2022-11-13T18:09:35.216Z,8.97
2022-11-13T18:12:41.386Z,8.20
2022-11-13T18:15:47.445Z,8.50
2022-11-13T18:18:55.493Z,8.20
2022-11-13T18:22:01.259Z,8.23
2022-11-13T18:25:07.447Z,8.63
2022-11-13T18:28:13.059Z,9.10
2022-11-13T18:31:20.060Z,9.17
2022-11-13T18:34:26.204Z,7.57
2022-11-13T18:37:31.721Z,8.73
2022-11-13T18:40:39.795Z,8.03
2022-11-13T18:43:46.698Z,8.70
2022-11-13T18:46:52.210Z,9.00
2022-11-13T18:49:58.301Z,9.33
2022-11-13T18:53:03.694Z,9.20
2022-11-13T18:56:14.153Z,8.90
2022-11-13T18:59:23.153Z,9.57
2022-11-13T19:02:28.996Z,9.20
2022-11-13T19:05:34.611Z,9.07
2022-11-13T19:08:41.018Z,9.77
2022-11-13T19:11:46.842Z,8.97
2022-11-13T19:14:52.606Z,9.17
2022-11-13T19:17:58.449Z,9.23
2022-11-13T19:21:06.429Z,9.50
2022-11-13T19:24:14.482Z,10.40
2022-11-13T19:27:19.875Z,10.13
2022-11-13T19:30:25.306Z,9.27
2022-11-13T19:33:31.039Z,9.17
2022-11-13T19:36:36.873Z,12.00
2022-11-13T19:39:42.740Z,10.67
2022-11-13T19:42:48.470Z,8.83
2022-11-13T19:45:54.546Z,8.87
2022-11-13T19:48:59.986Z,9.07
2022-11-13T19:52:07.016Z,10.43
2022-11-13T19:55:12.660Z,8.40
2022-11-13T19:58:18.334Z,8.30
2022-11-13T20:01:26.481Z,8.30
2022-11-13T20:04:32.451Z,7.80
2022-11-13T20:07:37.972Z,7.80
2022-11-13T20:10:43.518Z,7.63
2022-11-13T20:13:49.229Z,7.70
2022-11-13T20:16:54.920Z,7.00
2022-11-13T20:20:00.850Z,6.97
2022-11-13T20:23:06.320Z,6.90
2022-11-13T20:26:16.711Z,7.53
2022-11-13T20:29:22.369Z,6.80
2022-11-13T20:32:27.977Z,6.77
2022-11-13T20:35:33.530Z,6.40
2022-11-13T20:38:39.772Z,6.07
2022-11-13T20:41:45.208Z,6.77
2022-11-13T20:44:50.626Z,6.73
2022-11-13T20:47:56.250Z,7.27
2022-11-13T20:51:08.420Z,6.90
2022-11-13T20:54:13.893Z,6.63
2022-11-13T20:57:21.259Z,6.87
2022-11-13T21:00:27.155Z,6.83
2022-11-13T21:03:38.507Z,6.67
2022-11-13T21:06:47.272Z,6.53
2022-11-13T21:09:52.581Z,5.47
2022-11-13T21:12:57.940Z,5.93
2022-11-13T21:16:08.262Z,6.20
2022-11-13T21:19:13.676Z,5.50
2022-11-13T21:22:19.215Z,5.47
2022-11-13T21:25:24.950Z,6.47
2022-11-13T21:28:33.620Z,5.90
2022-11-13T21:31:39.623Z,5.27
2022-11-13T21:34:46.448Z,5.33
2022-11-13T21:37:52.142Z,5.43
2022-11-13T21:41:19.615Z,5.60
2022-11-13T21:44:25.349Z,4.90
2022-11-13T21:47:31.189Z,5.30
2022-11-13T21:50:36.624Z,5.57
2022-11-13T21:53:42.926Z,5.10
2022-11-13T21:56:48.629Z,4.80
2022-11-13T21:59:54.027Z,4.57
2022-11-13T22:02:59.333Z,4.70
2022-11-13T22:06:20.056Z,4.90
2022-11-13T22:09:25.817Z,5.20
2022-11-13T22:12:31.521Z,4.07
2022-11-13T22:15:36.993Z,4.63
2022-11-13T22:18:42.799Z,4.87
2022-11-13T22:21:48.497Z,4.73
2022-11-13T22:24:54.028Z,4.90
2022-11-13T22:27:59.656Z,6.03
2022-11-13T22:31:05.603Z,5.37
2022-11-13T22:34:11.517Z,4.73
2022-11-13T22:37:17.206Z,5.00
2022-11-13T22:40:22.659Z,5.10
2022-11-13T22:43:32.389Z,4.67
2022-11-13T22:46:38.042Z,5.40
2022-11-13T22:49:43.819Z,4.80
2022-11-13T22:52:51.999Z,4.83
2022-11-13T22:56:10.652Z,5.13
2022-11-13T22:59:16.294Z,4.90
2022-11-13T23:02:21.600Z,4.37
2022-11-13T23:05:27.346Z,5.70
2022-11-13T23:08:38.635Z,4.93
2022-11-13T23:11:44.334Z,4.70
2022-11-13T23:14:49.906Z,4.57
2022-11-13T23:17:55.656Z,4.53
2022-11-13T23:21:01.217Z,4.67
2022-11-13T23:24:07.137Z,4.73
2022-11-13T23:27:12.966Z,4.57
2022-11-13T23:30:18.582Z,4.40
2022-11-13T23:33:24.037Z,4.63
2022-11-13T23:36:30.889Z,4.40
2022-11-13T23:39:36.241Z,5.17
2022-11-13T23:42:54.679Z,4.50
2022-11-13T23:46:02.078Z,4.33
2022-11-13T23:49:07.530Z,4.50
2022-11-13T23:52:13.060Z,4.40
2022-11-13T23:55:19.166Z,4.40
2022-11-13T23:58:24.857Z,4.40
